Time;durP1;ratioP1;P1;durP2;ratioP2;P2;SDS_P1;SDS_P2;PMS_P1;PMS_P2;Temp;Humidity;BMP_temperature;BMP_pressure;BME280_temperature;BME280_humidity;BME280_pressure;Samples;Min_cycle;Max_cycle;Signal;HPM_P1;HPM_P2
2022/02/24 00:02:22;;;;;;;7.37;2.83;;;;;;;7.31;78.22;101696.31;5137444;27;20023;-36
2022/02/24 00:04:48;;;;;;;10.10;3.45;;;;;;;7.36;77.85;101702.78;5137385;27;20031;-36
2022/02/24 00:07:13;;;;;;;9.57;3.20;;;;;;;7.35;77.73;101705.66;5137300;27;20091;-35
2022/02/24 00:09:39;;;;;;;8.73;3.33;;;;;;;7.37;78.50;101700.91;5137262;27;20027;-36
2022/02/24 00:12:06;;;;;;;9.32;3.20;;;;;;;7.34;78.46;101698.63;5136971;27;20030;-36
2022/02/24 00:14:31;;;;;;;9.35;2.90;;;;;;;7.31;78.02;101685.53;5137452;27;20031;-36
2022/02/24 00:16:57;;;;;;;9.13;3.33;;;;;;;7.35;78.56;101687.66;5135798;27;20482;-35
2022/02/24 00:19:22;;;;;;;10.43;3.25;;;;;;;7.34;77.45;101688.69;5137959;27;20455;-35
2022/02/24 00:21:48;;;;;;;8.73;3.07;;;;;;;7.31;77.84;101683.69;5136496;27;20029;-35
2022/02/24 00:24:13;;;;;;;8.38;2.97;;;;;;;7.32;77.85;101680.00;5137235;27;20027;-36
2022/02/24 00:26:38;;;;;;;7.37;3.20;;;;;;;7.26;77.52;101671.81;5136941;27;20030;-35
2022/02/24 00:29:04;;;;;;;10.17;3.27;;;;;;;7.33;78.20;101683.50;5137263;27;20051;-36
2022/02/24 00:31:30;;;;;;;9.55;3.58;;;;;;;7.31;77.49;101678.31;5137364;27;20101;-36
2022/02/24 00:33:55;;;;;;;10.45;3.58;;;;;;;7.30;78.02;101682.03;5137278;27;20328;-35
2022/02/24 00:36:20;;;;;;;9.03;3.17;;;;;;;7.31;78.36;101672.91;5136850;27;20033;-35
2022/02/24 00:38:46;;;;;;;9.00;3.53;;;;;;;7.28;78.11;101669.78;5135503;27;20079;-35
2022/02/24 00:41:11;;;;;;;15.43;3.50;;;;;;;7.12;78.23;101642.06;5136999;27;20027;-35
2022/02/24 00:43:37;;;;;;;9.40;2.73;;;;;;;7.28;77.65;101667.94;5136021;27;20466;-36
2022/02/24 00:46:03;;;;;;;7.90;3.77;;;;;;;7.26;77.31;101666.44;5135983;27;20431;-35
2022/02/24 00:48:28;;;;;;;15.35;3.60;;;;;;;7.25;77.30;101657.53;5136426;27;20072;-36
2022/02/24 00:50:54;;;;;;;10.63;3.13;;;;;;;7.29;75.74;101658.84;5136548;27;20023;-35
2022/02/24 00:53:19;;;;;;;8.57;3.50;;;;;;;7.28;75.33;101646.41;5136406;27;20736;-35
2022/02/24 00:55:45;;;;;;;11.30;3.07;;;;;;;7.32;75.33;101649.53;5136583;27;20257;-36
2022/02/24 00:58:10;;;;;;;10.40;2.77;;;;;;;7.30;74.85;101644.34;5136348;27;20106;-36
2022/02/24 01:00:35;;;;;;;9.50;3.10;;;;;;;7.16;75.32;101618.31;5137105;27;20037;-36
2022/02/24 01:03:01;;;;;;;7.93;3.57;;;;;;;7.29;75.68;101636.47;5136044;27;20464;-35
2022/02/24 01:05:26;;;;;;;9.00;3.27;;;;;;;7.28;75.11;101635.66;5136238;27;20029;-36
2022/02/24 01:07:51;;;;;;;10.65;3.05;;;;;;;7.30;75.86;101633.59;5136094;27;20027;-36
2022/02/24 01:10:17;;;;;;;7.67;2.80;;;;;;;7.28;74.78;101627.56;5136466;27;20031;-36
2022/02/24 01:12:42;;;;;;;9.53;3.10;;;;;;;7.29;75.85;101626.56;5136116;27;20024;-36
2022/02/24 01:15:08;;;;;;;10.23;3.30;;;;;;;7.28;74.77;101618.69;5136070;27;20118;-36
2022/02/24 01:17:35;;;;;;;10.52;2.80;;;;;;;7.27;74.58;101619.69;5136510;27;20105;-36
2022/02/24 01:20:00;;;;;;;10.23;3.30;;;;;;;7.27;74.42;101617.00;5135654;27;20038;-36
2022/02/24 01:22:26;;;;;;;10.67;3.07;;;;;;;7.17;74.25;101607.41;5136243;27;20027;-36
2022/02/24 01:24:51;;;;;;;9.45;2.90;;;;;;;7.23;73.27;101606.63;5135862;27;20755;-36
2022/02/24 01:27:17;;;;;;;9.68;2.88;;;;;;;7.24;73.20;101594.00;5136328;27;20034;-36
2022/02/24 01:29:43;;;;;;;9.25;2.95;;;;;;;7.23;73.89;101601.25;5134290;27;20079;-36
2022/02/24 01:32:08;;;;;;;9.73;2.83;;;;;;;7.18;72.57;101578.63;5135702;27;20525;-35
2022/02/24 01:34:33;;;;;;;8.60;2.73;;;;;;;7.22;72.85;101583.44;5135376;27;20043;-35
2022/02/24 01:36:59;;;;;;;10.40;2.70;;;;;;;7.25;73.69;101581.38;5135550;27;20455;-36
2022/02/24 01:39:24;;;;;;;8.63;2.70;;;;;;;7.21;73.27;101572.84;5135711;27;20154;-35
2022/02/24 01:41:50;;;;;;;8.40;3.20;;;;;;;7.21;73.34;101559.41;5134272;27;20375;-35
2022/02/24 01:44:15;;;;;;;9.80;2.72;;;;;;;7.17;73.52;101556.28;5135721;27;20133;-36
2022/02/24 01:46:42;;;;;;;8.73;2.43;;;;;;;7.19;72.80;101556.09;5135458;27;20110;-36
2022/02/24 01:49:08;;;;;;;10.05;2.95;;;;;;;7.18;73.43;101559.81;5135631;27;20371;-36
2022/02/24 01:51:35;;;;;;;5.45;2.10;;;;;;;7.18;72.42;101554.44;5135056;27;20459;-36
2022/02/24 01:54:00;;;;;;;8.65;3.00;;;;;;;7.06;72.18;101519.13;5135238;27;20459;-36
2022/02/24 01:56:26;;;;;;;9.10;2.72;;;;;;;7.17;73.60;101537.47;5135099;27;20027;-36
2022/02/24 01:58:51;;;;;;;9.40;2.85;;;;;;;7.16;72.07;101533.06;5135176;27;20055;-36
2022/02/24 02:01:17;;;;;;;7.28;2.20;;;;;;;7.17;72.29;101534.78;5135712;27;20027;-36
2022/02/24 02:03:43;;;;;;;10.73;3.10;;;;;;;7.17;73.22;101528.53;5135066;27;20031;-36
2022/02/24 02:06:08;;;;;;;9.43;2.65;;;;;;;7.17;71.45;101533.91;5134761;27;20023;-35
2022/02/24 02:08:35;;;;;;;8.40;2.80;;;;;;;7.09;71.49;101517.91;5134920;27;20084;-36
2022/02/24 02:11:00;;;;;;;9.20;2.67;;;;;;;7.13;71.01;101521.91;5135541;27;20027;-36
2022/02/24 02:13:25;;;;;;;8.93;2.70;;;;;;;7.08;71.61;101505.50;5134627;27;20360;-36
2022/02/24 02:15:54;;;;;;;10.80;2.60;;;;;;;7.12;70.94;101504.06;5134991;27;20276;-36
2022/02/24 02:18:20;;;;;;;7.20;2.42;;;;;;;7.16;71.84;101502.66;5133634;27;20431;-36
2022/02/24 02:20:46;;;;;;;9.30;3.30;;;;;;;7.06;71.55;101486.00;5134816;27;20054;-36
2022/02/24 02:23:11;;;;;;;10.32;2.58;;;;;;;7.16;71.34;101494.59;5134725;27;20035;-36
2022/02/24 02:25:37;;;;;;;14.67;3.40;;;;;;;7.08;71.93;101481.28;5135198;27;20096;-36
2022/02/24 02:28:03;;;;;;;8.98;2.50;;;;;;;7.13;71.39;101481.53;5134790;27;20284;-36
2022/02/24 02:30:30;;;;;;;9.63;2.70;;;;;;;7.13;72.45;101492.31;5135543;27;20122;-36
2022/02/24 02:32:56;;;;;;;7.13;2.30;;;;;;;7.12;72.80;101485.25;5134554;27;20031;-36
2022/02/24 02:35:22;;;;;;;8.48;2.58;;;;;;;7.12;73.61;101485.25;5134328;27;20091;-35
2022/02/24 02:37:47;;;;;;;6.73;2.07;;;;;;;7.13;73.41;101481.53;5134675;27;20102;-36
2022/02/24 02:40:12;;;;;;;11.07;2.73;;;;;;;7.04;72.93;101477.31;5134724;27;20023;-36
2022/02/24 02:42:38;;;;;;;8.88;2.65;;;;;;;7.12;74.37;101479.84;5134059;27;20031;-36
2022/02/24 02:45:06;;;;;;;7.40;2.83;;;;;;;7.12;74.02;101478.00;5134402;27;20111;-36
2022/02/24 02:47:31;;;;;;;10.00;3.00;;;;;;;7.04;74.00;101455.81;5134763;27;20273;-36
2022/02/24 02:49:56;;;;;;;7.83;2.57;;;;;;;7.09;74.60;101480.25;5134239;27;20027;-36
2022/02/24 02:52:22;;;;;;;9.07;2.63;;;;;;;7.07;74.66;101471.53;5134703;27;20394;-35
2022/02/24 02:54:54;;;;;;;10.60;3.30;;;;;;;7.03;75.12;101464.88;5134857;27;20363;-35
2022/02/24 02:57:19;;;;;;;10.55;2.72;;;;;;;7.00;75.14;101466.09;5134015;27;20023;-35
2022/02/24 02:59:45;;;;;;;6.40;2.43;;;;;;;7.05;75.74;101460.16;5134206;27;20027;-35
2022/02/24 03:02:10;;;;;;;9.53;2.97;;;;;;;7.02;75.06;101455.16;5133936;28;20048;-35
2022/02/24 03:04:35;;;;;;;10.17;3.30;;;;;;;7.02;75.81;101463.22;5134189;28;20030;-35
2022/02/24 03:07:01;;;;;;;8.93;2.97;;;;;;;7.00;75.70;101454.53;5134160;27;20038;-35
2022/02/24 03:09:26;;;;;;;11.57;4.20;;;;;;;7.00;76.21;101449.97;5138941;27;20451;-36
2022/02/24 03:11:51;;;;;;;9.03;3.10;;;;;;;6.97;76.54;101443.09;5138204;27;20835;-36
2022/02/24 03:14:17;;;;;;;6.60;2.40;;;;;;;6.99;75.75;101439.41;5138661;27;20114;-36
2022/02/24 03:16:42;;;;;;;9.93;3.13;;;;;;;6.86;76.11;101419.44;5138036;27;20027;-35
2022/02/24 03:19:09;;;;;;;8.37;3.00;;;;;;;6.97;76.49;101437.72;5138620;27;20118;-35
2022/02/24 03:21:35;;;;;;;6.53;2.38;;;;;;;6.91;75.87;101425.06;5138931;27;20031;-35
2022/02/24 03:24:00;;;;;;;9.63;3.22;;;;;;;6.98;75.80;101430.53;5138964;27;20030;-36
2022/02/24 03:26:26;;;;;;;7.77;2.67;;;;;;;6.99;76.17;101434.88;5138713;27;20038;-36
2022/02/24 03:28:51;;;;;;;9.45;3.13;;;;;;;6.85;75.66;101398.97;5137793;27;20047;-36
2022/02/24 03:31:16;;;;;;;7.17;2.50;;;;;;;7.01;75.38;101421.22;5137865;27;20050;-36
2022/02/24 03:33:42;;;;;;;11.67;3.03;;;;;;;7.02;74.94;101421.00;5138017;27;20110;-36
2022/02/24 03:36:07;;;;;;;7.23;2.60;;;;;;;7.01;75.95;101411.28;5138930;27;20072;-36
2022/02/24 03:38:32;;;;;;;7.17;3.03;;;;;;;7.01;75.09;101411.28;5137639;27;20110;-36
2022/02/24 03:40:58;;;;;;;8.60;3.07;;;;;;;7.02;76.13;101404.88;5137478;27;20065;-36
2022/02/24 03:43:23;;;;;;;8.83;2.93;;;;;;;7.01;76.31;101405.91;5137889;27;20023;-36
2022/02/24 03:45:49;;;;;;;12.60;3.40;;;;;;;7.00;77.70;101398.88;5138150;27;20034;-36
2022/02/24 03:48:14;;;;;;;11.55;3.05;;;;;;;7.00;76.21;101401.56;5137384;27;20031;-36
2022/02/24 03:50:39;;;;;;;8.73;3.07;;;;;;;6.98;76.89;101398.25;5138017;27;20463;-36
2022/02/24 03:53:05;;;;;;;10.23;4.63;;;;;;;6.94;77.65;101395.13;5138039;27;20027;-36
2022/02/24 03:55:30;;;;;;;7.40;3.17;;;;;;;6.95;77.85;101388.69;5138306;27;20462;-36
2022/02/24 03:57:55;;;;;;;10.63;3.00;;;;;;;6.92;78.33;101377.50;5137649;27;20099;-36
2022/02/24 04:00:21;;;;;;;7.80;2.73;;;;;;;6.91;78.63;101365.91;5137914;27;20071;-36
2022/02/24 04:02:46;;;;;;;10.83;3.70;;;;;;;6.87;79.06;101364.63;5137242;27;20027;-36
2022/02/24 04:05:13;;;;;;;9.53;3.33;;;;;;;6.88;79.23;101358.25;5137760;27;20027;-36
2022/02/24 04:07:38;;;;;;;7.03;2.95;;;;;;;6.89;79.09;101359.91;5137311;27;20027;-36
2022/02/24 04:10:05;;;;;;;12.27;3.17;;;;;;;6.91;79.23;101363.22;5138208;27;20503;-36
2022/02/24 04:12:30;;;;;;;7.75;3.05;;;;;;;6.90;79.02;101355.38;5137277;27;20031;-36
2022/02/24 04:14:56;;;;;;;11.03;3.00;;;;;;;6.89;78.62;101349.16;5137548;27;20049;-36
2022/02/24 04:17:21;;;;;;;9.47;3.03;;;;;;;6.94;79.02;101344.03;5137277;27;20031;-36
2022/02/24 04:19:46;;;;;;;9.68;3.03;;;;;;;6.91;79.15;101341.72;5137470;27;20490;-36
2022/02/24 04:22:12;;;;;;;6.60;2.67;;;;;;;6.91;79.54;101332.81;5137378;27;20027;-37
2022/02/24 04:24:38;;;;;;;8.00;3.13;;;;;;;6.83;79.42;101317.69;5137083;27;20031;-35
2022/02/24 04:27:04;;;;;;;6.95;2.60;;;;;;;6.89;79.01;101319.59;5137057;27;20066;-35
2022/02/24 04:29:29;;;;;;;10.93;2.78;;;;;;;6.89;78.96;101319.59;5137837;27;20104;-35
2022/02/24 04:31:55;;;;;;;8.83;3.43;;;;;;;6.87;80.09;101321.63;5136975;27;20027;-36
2022/02/24 04:34:20;;;;;;;8.87;3.17;;;;;;;6.89;79.63;101319.59;5136997;27;20371;-36
2022/02/24 04:36:46;;;;;;;10.07;3.00;;;;;;;6.89;79.70;101314.22;5136712;27;20059;-36
2022/02/24 04:39:11;;;;;;;11.83;3.53;;;;;;;6.83;79.58;101303.38;5137077;27;20038;-36
2022/02/24 04:41:36;;;;;;;9.63;3.13;;;;;;;6.90;80.61;101309.66;5137068;27;20023;-36
2022/02/24 04:44:02;;;;;;;8.13;3.23;;;;;;;6.84;79.27;101303.22;5137115;27;20459;-36
2022/02/24 04:46:27;;;;;;;10.57;3.42;;;;;;;6.85;80.54;101307.56;5137461;27;20031;-36
2022/02/24 04:48:52;;;;;;;8.07;3.00;;;;;;;6.79;80.27;101289.53;5136212;27;20019;-36
2022/02/24 04:51:18;;;;;;;7.77;2.50;;;;;;;6.87;80.55;101307.34;5136683;27;20051;-36
2022/02/24 04:53:43;;;;;;;8.27;3.05;;;;;;;6.87;80.15;101308.19;5135463;27;20042;-36
2022/02/24 04:56:09;;;;;;;10.13;3.10;;;;;;;6.84;80.04;101292.47;5136583;27;20030;-36
2022/02/24 04:58:34;;;;;;;8.60;3.13;;;;;;;6.86;80.07;101294.94;5136170;27;20110;-36
2022/02/24 05:01:00;;;;;;;10.75;3.42;;;;;;;6.84;80.51;101287.09;5136720;27;20034;-36
2022/02/24 05:03:25;;;;;;;6.22;2.72;;;;;;;6.85;80.57;101286.03;5136656;27;20451;-37
2022/02/24 05:05:50;;;;;;;11.40;3.43;;;;;;;6.81;80.22;101287.47;5136723;27;20030;-36
2022/02/24 05:08:16;;;;;;;11.13;3.40;;;;;;;6.83;80.60;101285.44;5136551;27;20095;-36
2022/02/24 05:10:41;;;;;;;8.40;2.67;;;;;;;6.80;81.22;101280.44;5136354;27;20025;-36
2022/02/24 05:13:06;;;;;;;8.83;3.30;;;;;;;6.86;81.00;101286.88;5136201;27;20026;-36
2022/02/24 05:15:32;;;;;;;10.50;3.10;;;;;;;6.75;80.52;101271.28;5135885;27;20554;-36
2022/02/24 05:17:57;;;;;;;11.60;3.13;;;;;;;6.78;80.81;101268.19;5136327;27;20076;-36
2022/02/24 05:20:23;;;;;;;8.50;2.60;;;;;;;6.81;81.80;101267.81;5136364;27;20056;-36
2022/02/24 05:22:48;;;;;;;10.40;4.00;;;;;;;6.80;80.90;101264.31;5136051;27;20023;-36
2022/02/24 05:25:15;;;;;;;8.33;2.53;;;;;;;6.77;81.45;101256.63;5136261;27;20111;-36
2022/02/24 05:27:44;;;;;;;9.93;3.00;;;;;;;6.79;81.38;101253.75;5135823;27;20027;-36
2022/02/24 05:30:13;;;;;;;8.38;2.60;;;;;;;6.77;80.91;101247.72;5135796;27;20100;-36
2022/02/24 05:32:39;;;;;;;10.60;2.67;;;;;;;6.77;81.58;101237.81;5135726;27;20050;-36
2022/02/24 05:35:06;;;;;;;9.10;3.08;;;;;;;6.73;81.67;101228.47;5135854;27;20039;-36
2022/02/24 05:37:32;;;;;;;8.77;3.03;;;;;;;6.80;81.16;101233.91;5135718;27;20091;-36
2022/02/24 05:39:58;;;;;;;10.82;2.65;;;;;;;6.79;80.99;101229.56;5136219;27;20108;-36
2022/02/24 05:42:23;;;;;;;10.15;2.85;;;;;;;6.79;80.46;101218.81;5135283;27;20023;-36
2022/02/24 05:44:49;;;;;;;12.40;2.93;;;;;;;6.81;81.10;101220.25;5135863;27;20034;-36
2022/02/24 05:47:16;;;;;;;9.07;2.85;;;;;;;6.81;80.48;101217.56;5135444;27;20019;-36
2022/02/24 05:49:41;;;;;;;9.20;3.28;;;;;;;6.72;80.60;101194.56;5135044;27;20020;-36
2022/02/24 05:52:07;;;;;;;8.27;2.40;;;;;;;6.83;80.62;101210.16;5134051;27;20039;-36
2022/02/24 05:54:32;;;;;;;11.80;3.20;;;;;;;6.82;80.05;101196.91;5136108;27;20531;-35
2022/02/24 05:56:58;;;;;;;9.85;2.95;;;;;;;6.81;80.05;101197.94;5135012;27;20277;-35
2022/02/24 05:59:23;;;;;;;7.60;2.50;;;;;;;6.81;79.69;101209.50;5135202;27;20058;-35
2022/02/24 06:01:49;;;;;;;7.60;2.85;;;;;;;6.75;80.39;101191.50;5135489;27;20087;-35
2022/02/24 06:04:15;;;;;;;8.13;2.17;;;;;;;6.74;80.85;101186.31;5134915;27;20073;-36
2022/02/24 06:06:40;;;;;;;10.67;2.63;;;;;;;6.66;80.64;101169.31;5135393;27;20034;-35
2022/02/24 06:09:05;;;;;;;7.40;3.00;;;;;;;6.68;80.04;101169.09;5134157;27;20054;-35
2022/02/24 06:11:31;;;;;;;8.67;2.80;;;;;;;6.74;80.23;101170.19;5135551;27;20479;-35
2022/02/24 06:13:57;;;;;;;7.40;2.40;;;;;;;6.80;79.38;101191.72;5135193;27;20019;-35
2022/02/24 06:16:22;;;;;;;7.80;2.58;;;;;;;6.81;79.41;101187.16;5135509;27;20030;-35
2022/02/24 06:18:47;;;;;;;10.35;3.05;;;;;;;6.79;79.90;101179.31;5135666;27;20042;-35
2022/02/24 06:21:16;;;;;;;7.00;2.40;;;;;;;6.79;79.86;101179.31;5133943;27;20061;-35
2022/02/24 06:23:41;;;;;;;5.75;2.40;;;;;;;6.75;80.38;101172.66;5134517;27;20031;-36
2022/02/24 06:26:07;;;;;;;8.73;2.87;;;;;;;6.83;79.84;101177.03;5135382;27;20058;-35
2022/02/24 06:28:32;;;;;;;9.03;2.53;;;;;;;6.80;80.30;101162.16;5134566;27;20051;-36
2022/02/24 06:30:58;;;;;;;11.73;2.43;;;;;;;6.79;79.98;101168.56;5134975;27;20101;-36
2022/02/24 06:33:23;;;;;;;7.65;2.53;;;;;;;6.78;80.23;101161.50;5134596;27;20489;-36
2022/02/24 06:35:48;;;;;;;10.60;3.10;;;;;;;6.79;80.89;101173.13;5134767;27;20105;-38
2022/02/24 06:38:14;;;;;;;8.07;2.97;;;;;;;6.79;80.16;101163.19;5134453;27;20110;-36
2022/02/24 06:40:40;;;;;;;8.30;3.42;;;;;;;6.70;80.14;101148.25;5135024;27;20363;-36
2022/02/24 06:43:05;;;;;;;9.47;2.50;;;;;;;6.77;80.39;101162.53;5133827;27;20054;-35
2022/02/24 06:45:30;;;;;;;8.23;3.30;;;;;;;6.66;79.87;101141.59;5134974;27;20550;-36
2022/02/24 06:47:56;;;;;;;9.57;1.93;;;;;;;6.77;79.88;101148.28;5134353;27;20151;-36
2022/02/24 06:50:21;;;;;;;9.00;2.80;;;;;;;6.77;80.11;101154.47;5134328;27;20113;-36
2022/02/24 06:52:46;;;;;;;6.20;2.07;;;;;;;6.79;78.74;101146.25;5134279;27;20031;-35
2022/02/24 06:55:12;;;;;;;6.43;2.70;;;;;;;6.78;78.99;101150.75;5134318;27;20020;-36
2022/02/24 06:57:49;;;;;;;10.18;2.58;;;;;;;6.80;79.28;101147.88;5134654;27;20027;-37
2022/02/24 07:00:16;;;;;;;10.07;2.35;;;;;;;6.79;78.75;101148.91;5134749;27;20088;-36
2022/02/24 07:02:42;;;;;;;5.82;1.80;;;;;;;6.73;79.49;101139.78;5134089;28;20034;-36
2022/02/24 07:05:08;;;;;;;7.63;2.13;;;;;;;6.82;77.97;101152.03;5133949;28;20027;-36
2022/02/24 07:07:34;;;;;;;7.85;2.30;;;;;;;6.83;79.89;101153.72;5134084;28;20031;-35
2022/02/24 07:10:02;;;;;;;4.60;1.85;;;;;;;6.83;78.94;101152.84;5134256;28;20057;-36
2022/02/24 07:12:28;;;;;;;7.53;1.85;;;;;;;6.83;79.26;101145.63;5133828;28;20077;-35
2022/02/24 07:14:53;;;;;;;5.97;1.90;;;;;;;6.83;78.88;101137.56;5134596;28;20047;-36
2022/02/24 07:17:18;;;;;;;5.93;2.17;;;;;;;6.83;79.20;101136.72;5133651;28;20147;-35
2022/02/24 07:19:44;;;;;;;5.37;1.93;;;;;;;6.75;78.99;101124.28;5134220;28;20072;-36
2022/02/24 07:22:09;;;;;;;6.03;2.20;;;;;;;6.73;78.80;101129.03;5133966;28;20019;-36
2022/02/24 07:24:34;;;;;;;8.90;2.10;;;;;;;6.71;79.35;101117.66;5133671;28;20023;-36
2022/02/24 07:27:00;;;;;;;6.13;2.00;;;;;;;6.78;78.81;101134.63;5134067;28;20095;-36
2022/02/24 07:29:25;;;;;;;9.80;2.20;;;;;;;6.82;78.54;101135.06;5133943;28;20051;-35
2022/02/24 07:31:50;;;;;;;6.43;1.93;;;;;;;6.80;79.95;101129.06;5133833;28;20034;-36
2022/02/24 07:34:16;;;;;;;10.77;2.10;;;;;;;6.77;79.93;101114.16;5133947;28;20023;-36
2022/02/24 07:36:43;;;;;;;6.70;1.93;;;;;;;6.81;79.18;101122.66;5134128;28;20585;-36
2022/02/24 07:39:12;;;;;;;7.55;2.28;;;;;;;6.80;79.55;101107.56;5134308;28;20039;-36
2022/02/24 07:41:38;;;;;;;7.75;2.35;;;;;;;6.84;79.44;101124.97;5133274;28;20035;-35
2022/02/24 07:44:05;;;;;;;5.50;2.00;;;;;;;6.80;78.25;101121.84;5133913;28;20033;-35
2022/02/24 07:46:31;;;;;;;4.63;1.67;;;;;;;6.76;78.27;101103.63;5133682;28;20031;-36
2022/02/24 07:48:56;;;;;;;9.43;2.35;;;;;;;6.82;77.87;101125.13;5134337;28;20160;-36
2022/02/24 07:51:21;;;;;;;7.20;2.20;;;;;;;6.83;78.34;101109.84;5133673;28;20160;-36
2022/02/24 07:53:47;;;;;;;6.47;1.77;;;;;;;6.70;77.09;101086.44;5134874;27;20039;-37
2022/02/24 07:56:12;;;;;;;8.37;2.70;;;;;;;6.80;77.43;101108.41;5138336;27;20031;-37
2022/02/24 07:58:37;;;;;;;8.10;2.80;;;;;;;6.82;77.91;101097.44;5137438;27;20127;-36
2022/02/24 08:01:02;;;;;;;9.17;2.90;;;;;;;6.83;78.94;101093.72;5137768;27;20381;-37
2022/02/24 08:03:28;;;;;;;6.00;2.00;;;;;;;6.75;77.63;101086.66;5137460;27;20030;-35
2022/02/24 08:05:54;;;;;;;10.43;2.60;;;;;;;6.79;78.40;101093.31;5137777;27;20019;-37
2022/02/24 08:08:19;;;;;;;8.70;2.55;;;;;;;6.80;77.57;101092.25;5137166;27;20054;-36
2022/02/24 08:10:45;;;;;;;7.43;2.10;;;;;;;6.82;78.78;101082.13;5137178;27;20112;-36
2022/02/24 08:13:10;;;;;;;7.60;2.30;;;;;;;6.88;77.77;101075.97;5137072;27;20424;-36
2022/02/24 08:15:35;;;;;;;9.63;2.43;;;;;;;6.86;77.44;101078.00;5137680;27;20027;-36
2022/02/24 08:18:01;;;;;;;10.37;2.43;;;;;;;6.89;77.59;101076.81;5137001;27;20023;-36
2022/02/24 08:20:26;;;;;;;5.70;1.67;;;;;;;6.87;77.69;101066.22;5137486;27;20030;-36
2022/02/24 08:22:53;;;;;;;8.17;2.10;;;;;;;6.88;76.73;101059.84;5136588;27;20030;-36
2022/02/24 08:25:20;;;;;;;7.80;2.13;;;;;;;6.91;77.21;101062.13;5137096;27;20023;-36
2022/02/24 08:27:46;;;;;;;6.30;2.20;;;;;;;6.94;76.68;101052.84;5136614;27;20038;-36
2022/02/24 08:30:16;;;;;;;6.47;2.10;;;;;;;6.92;76.51;101044.13;5136629;27;20103;-36
2022/02/24 08:32:42;;;;;;;7.38;2.25;;;;;;;7.02;75.77;101055.31;5136374;27;20055;-36
2022/02/24 08:35:09;;;;;;;8.48;2.25;;;;;;;7.00;76.19;101041.25;5136953;27;20055;-36
2022/02/24 08:37:35;;;;;;;10.45;2.67;;;;;;;7.01;76.03;101031.31;5136823;27;20459;-36
2022/02/24 08:40:02;;;;;;;;;;;;;;;7.11;76.24;101043.34;5137289;27;20110;-36
2022/02/24 08:42:27;;;;;;;5.18;1.67;;;;;;;6.93;75.54;101014.38;5137054;27;19959;-36
2022/02/24 08:44:53;;;;;;;5.53;1.90;;;;;;;7.01;75.65;101024.09;5136450;27;20023;-36
2022/02/24 08:47:19;;;;;;;5.63;1.92;;;;;;;7.04;75.66;101014.81;5136490;27;20027;-36
2022/02/24 08:49:46;;;;;;;5.32;2.05;;;;;;;7.10;75.42;101035.50;5137130;27;20044;-36
2022/02/24 08:52:12;;;;;;;7.88;2.25;;;;;;;7.19;75.27;101028.91;5136688;27;20058;-36
2022/02/24 08:54:37;;;;;;;11.80;2.60;;;;;;;7.27;75.34;101017.94;5136886;27;20513;-37
2022/02/24 08:57:03;;;;;;;13.75;2.28;;;;;;;7.30;74.75;101012.16;5136467;27;20069;-36
2022/02/24 08:59:29;;;;;;;6.53;1.83;;;;;;;7.37;75.45;101009.44;5136602;27;20052;-36
2022/02/24 09:01:55;;;;;;;8.65;2.28;;;;;;;7.36;74.45;101005.94;5135017;27;20127;-36
2022/02/24 09:04:20;;;;;;;6.15;1.70;;;;;;;7.35;74.28;100984.63;5136348;27;20023;-37
2022/02/24 09:06:46;;;;;;;9.80;2.13;;;;;;;7.35;74.86;100980.06;5135273;27;20035;-36
2022/02/24 09:09:11;;;;;;;7.40;1.98;;;;;;;7.32;73.98;100974.28;5136254;27;20026;-36
2022/02/24 09:11:37;;;;;;;6.90;2.47;;;;;;;7.39;74.13;100988.56;5136137;27;20470;-36
2022/02/24 09:14:03;;;;;;;6.07;2.00;;;;;;;7.39;74.89;100978.63;5135937;27;20449;-36
2022/02/24 09:16:29;;;;;;;7.20;2.00;;;;;;;7.42;74.05;100977.41;5136480;27;20062;-36
2022/02/24 09:18:54;;;;;;;9.18;2.95;;;;;;;7.39;74.29;100970.56;5135960;27;20379;-36
2022/02/24 09:21:20;;;;;;;10.02;2.67;;;;;;;7.36;74.41;100959.38;5135940;27;20031;-37
2022/02/24 09:23:45;;;;;;;9.50;2.70;;;;;;;7.34;73.92;100954.22;5135535;27;20030;-36
2022/02/24 09:26:10;;;;;;;11.00;2.40;;;;;;;7.45;74.23;100942.81;5136106;27;20024;-37
2022/02/24 09:28:36;;;;;;;9.87;2.40;;;;;;;7.66;73.24;100932.84;5136082;27;20043;-36
2022/02/24 09:31:02;;;;;;;7.28;2.00;;;;;;;7.81;73.27;100946.94;5136505;27;20105;-36
2022/02/24 09:33:28;;;;;;;8.63;2.17;;;;;;;7.92;71.83;100946.28;5135310;27;20027;-36
2022/02/24 09:35:54;;;;;;;9.43;2.33;;;;;;;8.04;72.24;100940.22;5135223;27;20460;-36
2022/02/24 09:38:20;;;;;;;7.95;2.22;;;;;;;8.07;71.41;100923.66;5135238;27;20066;-36
2022/02/24 09:40:49;;;;;;;6.83;1.93;;;;;;;8.12;71.94;100926.53;5136174;27;20051;-36
2022/02/24 09:43:16;;;;;;;5.07;2.10;;;;;;;8.10;72.06;100898.97;5135348;27;20027;-36
2022/02/24 09:45:42;;;;;;;7.97;2.33;;;;;;;8.16;71.41;100906.22;5135656;27;20150;-36
2022/02/24 09:48:09;;;;;;;6.28;2.08;;;;;;;8.13;71.26;100896.69;5135387;27;20020;-37
2022/02/24 09:50:35;;;;;;;8.63;2.42;;;;;;;8.24;71.94;100900.56;5135332;27;20088;-37
2022/02/24 09:53:02;;;;;;;9.15;2.22;;;;;;;8.24;70.92;100881.72;5135439;27;20413;-36
2022/02/24 09:55:28;;;;;;;6.70;2.25;;;;;;;8.30;70.44;100880.06;5135352;27;20031;-35
2022/02/24 09:57:53;;;;;;;9.13;2.20;;;;;;;8.33;70.88;100872.34;5135023;27;20317;-36
2022/02/24 10:00:20;;;;;;;7.68;2.03;;;;;;;8.35;71.10;100872.97;5135491;27;20034;-36
2022/02/24 10:02:46;;;;;;;8.25;2.25;;;;;;;8.34;71.00;100874.00;5134882;27;20032;-36
2022/02/24 10:05:14;;;;;;;9.63;2.10;;;;;;;8.30;71.15;100853.94;5135307;27;20031;-36
2022/02/24 10:07:41;;;;;;;8.20;2.47;;;;;;;8.50;71.06;100865.44;5134783;27;20071;-36
2022/02/24 10:10:31;;;;;;;7.68;2.17;;;;;;;8.77;71.81;100866.09;5134706;27;20023;-36
2022/02/24 10:13:09;;;;;;;7.55;2.22;;;;;;;8.82;70.97;100846.56;5134450;27;20032;-36
2022/02/24 10:15:51;;;;;;;8.90;2.60;;;;;;;8.84;70.60;100830.19;5135304;27;20154;-35
2022/02/24 10:18:18;;;;;;;6.65;2.20;;;;;;;8.89;70.16;100823.06;5134803;27;20074;-36
2022/02/24 10:20:45;;;;;;;6.22;1.90;;;;;;;8.87;68.34;100811.66;5134889;27;20483;-36
2022/02/24 10:23:13;;;;;;;9.35;2.45;;;;;;;8.93;68.94;100818.03;5134424;27;20036;-35
2022/02/24 10:25:53;;;;;;;8.15;2.25;;;;;;;9.07;68.10;100816.06;5134640;27;20387;-35
2022/02/24 10:28:50;;;;;;;6.18;1.80;;;;;;;9.13;67.16;100813.31;5134848;27;20460;-35
2022/02/24 10:31:21;;;;;;;7.97;2.38;;;;;;;9.24;68.38;100807.19;5135372;27;20035;-35
2022/02/24 10:34:07;;;;;;;10.00;1.80;;;;;;;9.31;68.37;100801.72;5134390;27;20019;-36
2022/02/24 10:36:34;;;;;;;6.95;1.80;;;;;;;9.31;66.63;100790.91;5133904;27;20100;-36
2022/02/24 10:38:59;;;;;;;13.02;2.08;;;;;;;9.38;67.34;100791.69;5134169;27;20541;-36
2022/02/24 10:41:39;;;;;;;7.97;2.37;;;;;;;9.50;67.27;100781.78;5134779;27;20102;-36
2022/02/24 10:44:23;;;;;;;7.63;2.10;;;;;;;9.65;67.59;100783.28;5134331;27;20023;-36
2022/02/24 10:47:03;;;;;;;8.80;2.20;;;;;;;9.80;67.60;100768.31;5134348;27;20024;-36
2022/02/24 10:49:36;;;;;;;8.68;1.95;;;;;;;9.79;66.66;100755.88;5134116;27;20375;-36
2022/02/24 10:52:27;;;;;;;6.25;1.60;;;;;;;9.90;66.51;100762.38;5134514;27;20027;-36
2022/02/24 10:54:55;;;;;;;8.77;2.20;;;;;;;9.79;66.09;100760.44;5131703;27;20050;-36
2022/02/24 10:57:25;;;;;;;7.45;2.00;;;;;;;9.82;66.06;100754.59;5134708;27;20023;-36
2022/02/24 10:59:51;;;;;;;9.77;2.25;;;;;;;9.76;65.21;100747.41;5134624;27;20041;-36
2022/02/24 11:02:17;;;;;;;11.60;2.28;;;;;;;9.82;66.38;100742.97;5134523;27;20027;-36
2022/02/24 11:04:44;;;;;;;7.15;1.98;;;;;;;9.87;66.41;100721.50;5133948;28;20103;-36
2022/02/24 11:07:10;;;;;;;9.13;2.05;;;;;;;10.01;65.80;100737.31;5133915;28;20031;-36
2022/02/24 11:09:42;;;;;;;9.57;2.25;;;;;;;10.00;65.55;100727.56;5133873;28;20364;-36
2022/02/24 11:12:10;;;;;;;7.53;1.80;;;;;;;9.99;64.80;100720.47;5133718;28;20027;-36
2022/02/24 11:14:36;;;;;;;4.60;1.42;;;;;;;10.14;66.30;100714.66;5133094;28;20383;-36
2022/02/24 11:17:07;;;;;;;6.50;1.83;;;;;;;10.18;64.98;100709.63;5134530;28;20028;-36
2022/02/24 11:19:36;;;;;;;9.27;1.38;;;;;;;10.35;64.90;100705.22;5134209;28;20027;-36
2022/02/24 11:22:02;;;;;;;7.57;1.70;;;;;;;10.41;64.85;100714.28;5133711;28;20471;-36
2022/02/24 11:24:27;;;;;;;8.02;2.00;;;;;;;10.39;63.67;100692.06;5134011;28;20031;-36
2022/02/24 11:27:19;;;;;;;6.32;1.27;;;;;;;10.44;64.26;100679.50;5134210;28;20151;-36
2022/02/24 11:30:03;;;;;;;7.35;1.52;;;;;;;10.53;63.84;100691.59;5137345;27;20103;-36